createdAt,value
2024-01-11T00:01:52.761Z,148.90
2024-01-11T00:04:20.963Z,152.10
2024-01-11T00:06:49.271Z,154.80
2024-01-11T00:09:17.543Z,141.10
2024-01-11T00:11:45.710Z,148.10
2024-01-11T00:14:13.941Z,159.20
2024-01-11T00:16:43.088Z,173.20
2024-01-11T00:19:11.373Z,166.10
2024-01-11T00:21:41.881Z,160.50
2024-01-11T00:24:10.475Z,154.10
2024-01-11T00:26:38.755Z,151.40
2024-01-11T00:29:07.053Z,137.80
2024-01-11T00:31:35.297Z,155.10
2024-01-11T00:34:03.673Z,142.70
2024-01-11T00:36:32.051Z,154.80
2024-01-11T00:39:00.529Z,154.00
2024-01-11T00:41:28.980Z,150.30
2024-01-11T00:43:57.297Z,144.40
2024-01-11T00:46:25.565Z,148.50
2024-01-11T00:48:56.574Z,147.20
2024-01-11T00:51:25.182Z,142.00
2024-01-11T00:53:53.317Z,135.20
2024-01-11T00:56:22.526Z,148.30
2024-01-11T00:58:50.726Z,143.70
2024-01-11T01:01:19.015Z,150.70
2024-01-11T01:03:47.179Z,154.60
2024-01-11T01:06:15.494Z,162.30
2024-01-11T01:08:43.677Z,163.10
2024-01-11T01:11:11.830Z,165.80
2024-01-11T01:13:40.166Z,157.60
2024-01-11T01:16:08.344Z,151.50
2024-01-11T01:18:36.570Z,146.70
2024-01-11T01:21:08.288Z,156.60
2024-01-11T01:23:36.503Z,138.90
2024-01-11T01:26:07.485Z,144.30
2024-01-11T01:28:35.967Z,143.60
2024-01-11T01:31:04.365Z,135.30
2024-01-11T01:33:32.855Z,135.90
2024-01-11T01:36:00.996Z,144.40
2024-01-11T01:38:29.124Z,151.00
2024-01-11T01:40:57.457Z,128.40
2024-01-11T01:43:25.511Z,144.00
2024-01-11T01:45:54.202Z,123.00
2024-01-11T01:48:22.836Z,134.00
2024-01-11T01:50:54.389Z,130.00
2024-01-11T01:53:23.670Z,118.40
2024-01-11T01:55:52.966Z,123.70
2024-01-11T01:58:21.811Z,124.60
2024-01-11T02:00:52.597Z,136.30
2024-01-11T02:03:21.275Z,128.00
2024-01-11T02:05:49.943Z,130.30
2024-01-11T02:08:20.580Z,134.50
2024-01-11T02:10:49.128Z,121.20
2024-01-11T02:13:17.400Z,120.90
2024-01-11T02:15:46.975Z,125.10
2024-01-11T02:18:15.370Z,136.30
2024-01-11T02:20:43.684Z,123.50
2024-01-11T02:23:19.903Z,134.30
2024-01-11T02:25:48.104Z,147.20
2024-01-11T02:28:16.278Z,152.30
2024-01-11T02:30:44.508Z,140.90
2024-01-11T02:33:17.461Z,144.40
2024-01-11T02:35:48.028Z,146.10
2024-01-11T02:38:17.231Z,142.60
2024-01-11T02:40:46.044Z,143.10
2024-01-11T02:43:14.739Z,129.80
2024-01-11T02:45:42.793Z,116.20
2024-01-11T02:48:11.059Z,127.70
2024-01-11T02:50:39.488Z,121.20
2024-01-11T02:53:07.641Z,129.20
2024-01-11T02:55:35.791Z,125.10
2024-01-11T02:58:04.090Z,123.90
2024-01-11T03:00:32.182Z,133.70
2024-01-11T03:03:00.371Z,121.00
2024-01-11T03:05:29.009Z,133.20
2024-01-11T03:07:57.297Z,139.70
2024-01-11T03:10:25.348Z,134.20
2024-01-11T03:12:53.422Z,137.90
2024-01-11T03:15:21.485Z,150.70
2024-01-11T03:17:49.853Z,131.40
2024-01-11T03:20:21.659Z,136.50
2024-01-11T03:22:49.786Z,134.20
2024-01-11T03:25:17.854Z,132.70
2024-01-11T03:27:46.331Z,135.30
2024-01-11T03:30:14.818Z,126.90
2024-01-11T03:32:43.241Z,133.10
2024-01-11T03:35:11.659Z,126.80
2024-01-11T03:37:40.048Z,124.60
2024-01-11T03:40:08.638Z,132.00
2024-01-11T03:42:36.696Z,124.70
2024-01-11T03:45:06.056Z,140.10
2024-01-11T03:47:34.294Z,150.70
2024-01-11T03:50:03.390Z,165.80
2024-01-11T03:52:31.547Z,144.20
2024-01-11T03:54:59.712Z,140.40
2024-01-11T03:57:27.984Z,146.60
2024-01-11T03:59:56.064Z,135.00
2024-01-11T04:02:24.225Z,136.20
2024-01-11T04:04:52.711Z,131.40
2024-01-11T04:07:20.795Z,139.50
2024-01-11T04:09:48.875Z,151.30
2024-01-11T04:12:17.029Z,141.40
2024-01-11T04:14:45.276Z,146.90
2024-01-11T04:17:13.669Z,153.20
2024-01-11T04:19:41.955Z,138.30
2024-01-11T04:22:10.226Z,169.80
2024-01-11T04:24:38.294Z,176.50
2024-01-11T04:27:06.668Z,154.70
2024-01-11T04:29:34.871Z,160.40
2024-01-11T04:32:03.096Z,165.30
2024-01-11T04:34:32.612Z,166.10
2024-01-11T04:37:00.999Z,148.60
2024-01-11T04:39:29.172Z,162.80
2024-01-11T04:41:57.246Z,160.50
2024-01-11T04:44:27.885Z,159.60
2024-01-11T04:46:56.436Z,168.90
2024-01-11T04:49:25.004Z,153.20
2024-01-11T04:51:53.220Z,164.10
2024-01-11T04:54:21.382Z,160.60
2024-01-11T04:56:49.607Z,179.80
2024-01-11T04:59:17.871Z,162.70
2024-01-11T05:01:47.446Z,152.40
2024-01-11T05:04:15.605Z,141.70
2024-01-11T05:06:44.061Z,147.60
2024-01-11T05:09:12.269Z,143.10
2024-01-11T05:11:40.485Z,125.80
2024-01-11T05:14:08.777Z,120.70
2024-01-11T05:16:37.292Z,123.00
2024-01-11T05:19:05.471Z,121.40
2024-01-11T05:21:33.732Z,129.60
2024-01-11T05:24:02.736Z,126.10
2024-01-11T05:26:31.200Z,92.60
2024-01-11T05:28:59.962Z,90.40
2024-01-11T05:31:28.242Z,90.00
2024-01-11T05:33:56.642Z,92.00
2024-01-11T05:36:25.131Z,100.70
2024-01-11T05:38:53.196Z,89.70
2024-01-11T05:41:21.279Z,83.00
2024-01-11T05:43:49.441Z,86.70
2024-01-11T05:46:17.510Z,87.10
2024-01-11T05:48:45.811Z,93.50
2024-01-11T05:51:14.064Z,94.80
2024-01-11T05:53:42.245Z,98.40
2024-01-11T05:56:12.133Z,99.10
2024-01-11T05:58:41.400Z,98.80
2024-01-11T06:01:10.331Z,103.70
2024-01-11T06:03:39.916Z,115.50
2024-01-11T06:06:08.653Z,102.20
2024-01-11T06:08:36.944Z,97.60
2024-01-11T06:11:05.789Z,97.20
2024-01-11T06:13:34.276Z,105.90
2024-01-11T06:16:02.851Z,99.60
2024-01-11T06:18:32.036Z,99.80
2024-01-11T06:21:00.328Z,102.70
2024-01-11T06:23:28.966Z,94.70
2024-01-11T06:25:57.423Z,96.50
2024-01-11T06:28:25.562Z,94.40
2024-01-11T06:30:55.104Z,83.60
2024-01-11T06:33:23.505Z,86.20
2024-01-11T06:35:51.983Z,74.70
2024-01-11T06:38:20.220Z,93.90
2024-01-11T06:40:50.015Z,68.70
2024-01-11T06:43:18.040Z,71.70
2024-01-11T06:45:46.289Z,77.70
2024-01-11T06:48:14.587Z,92.70
2024-01-11T06:50:43.049Z,95.70
2024-01-11T06:53:11.300Z,80.40
2024-01-11T06:55:39.582Z,73.90
2024-01-11T06:58:07.937Z,83.20
2024-01-11T07:00:36.914Z,99.50
2024-01-11T07:03:05.085Z,82.70
2024-01-11T07:05:33.570Z,86.80
2024-01-11T07:08:01.779Z,112.10
2024-01-11T07:10:30.024Z,89.80
2024-01-11T07:12:58.145Z,95.50
2024-01-11T07:15:26.471Z,92.10
2024-01-11T07:17:54.991Z,106.50
2024-01-11T07:20:23.278Z,80.90
2024-01-11T07:22:51.513Z,86.20
2024-01-11T07:25:19.567Z,78.10
2024-01-11T07:27:47.599Z,77.20
2024-01-11T07:30:16.411Z,81.40
2024-01-11T07:32:44.893Z,68.70
2024-01-11T07:35:17.658Z,65.70
2024-01-11T07:37:47.301Z,67.40
2024-01-11T07:40:15.620Z,73.60
2024-01-11T07:42:44.447Z,73.40
2024-01-11T07:45:12.677Z,69.30
2024-01-11T07:47:41.481Z,72.70
2024-01-11T07:50:16.684Z,70.10
2024-01-11T07:52:44.921Z,75.40
2024-01-11T07:55:14.263Z,73.80
2024-01-11T07:57:42.850Z,80.70
2024-01-11T08:00:11.396Z,75.50
2024-01-11T08:02:42.376Z,78.20
2024-01-11T08:05:10.994Z,73.80
2024-01-11T08:07:39.701Z,78.30
2024-01-11T08:10:08.486Z,85.40
2024-01-11T08:12:37.628Z,72.60
2024-01-11T08:15:06.549Z,75.20
2024-01-11T08:17:34.711Z,72.90
2024-01-11T08:20:03.045Z,73.40
2024-01-11T08:22:35.071Z,78.70
2024-01-11T08:25:05.870Z,76.80
2024-01-11T08:27:34.901Z,77.80
2024-01-11T08:30:03.683Z,82.00
2024-01-11T08:32:32.764Z,72.30
2024-01-11T08:35:01.441Z,77.70
2024-01-11T08:37:29.764Z,74.50
2024-01-11T08:39:57.807Z,70.00
2024-01-11T08:42:26.003Z,78.20
2024-01-11T08:44:54.263Z,76.80
2024-01-11T08:47:22.615Z,74.50
2024-01-11T08:49:51.435Z,72.30
2024-01-11T08:52:19.428Z,71.30
2024-01-11T08:54:47.669Z,66.00
2024-01-11T08:57:16.372Z,73.80
2024-01-11T08:59:44.716Z,71.40
2024-01-11T09:02:16.750Z,75.40
2024-01-11T09:04:48.946Z,74.20
2024-01-11T09:07:17.543Z,73.90
2024-01-11T09:09:53.664Z,75.90
2024-01-11T09:12:25.174Z,73.10
2024-01-11T09:14:53.615Z,72.90
2024-01-11T09:17:23.206Z,80.70
2024-01-11T09:19:52.226Z,76.00
2024-01-11T09:22:20.510Z,71.70
2024-01-11T09:24:48.686Z,73.90
2024-01-11T09:27:17.051Z,78.00
2024-01-11T09:29:46.102Z,83.20
2024-01-11T09:32:14.601Z,84.60
2024-01-11T09:34:42.988Z,78.40
2024-01-11T09:37:11.178Z,76.10
2024-01-11T09:39:39.616Z,75.10
2024-01-11T09:42:08.752Z,78.10
2024-01-11T09:44:41.006Z,78.00
2024-01-11T09:47:11.734Z,78.70
2024-01-11T09:49:43.940Z,70.30
2024-01-11T09:52:14.396Z,77.20
2024-01-11T09:54:42.925Z,74.30
2024-01-11T09:57:11.314Z,76.40
2024-01-11T09:59:39.630Z,79.50
2024-01-11T10:02:11.096Z,80.40
2024-01-11T10:04:39.302Z,73.70
2024-01-11T10:07:08.189Z,81.00
2024-01-11T10:09:36.879Z,77.70
2024-01-11T10:12:06.317Z,78.20
2024-01-11T10:14:35.039Z,76.70
2024-01-11T10:17:03.279Z,74.70
2024-01-11T10:19:31.694Z,78.60
2024-01-11T10:22:00.708Z,76.40
2024-01-11T10:24:29.768Z,76.40
2024-01-11T10:26:59.706Z,76.30
2024-01-11T10:29:32.024Z,83.60
2024-01-11T10:32:00.696Z,75.10
2024-01-11T10:34:29.080Z,73.60
2024-01-11T10:36:58.147Z,72.60
2024-01-11T10:39:27.564Z,74.80
2024-01-11T10:42:07.094Z,71.50
2024-01-11T10:44:37.394Z,80.50
2024-01-11T10:47:09.112Z,79.10
2024-01-11T10:49:41.342Z,79.50
2024-01-11T10:52:09.904Z,75.70
2024-01-11T10:54:38.422Z,79.80
2024-01-11T10:57:06.965Z,73.40
2024-01-11T10:59:36.806Z,65.40
2024-01-11T11:02:07.857Z,77.30
2024-01-11T11:04:37.325Z,85.10
2024-01-11T11:07:08.976Z,76.50
2024-01-11T11:09:38.638Z,73.00
2024-01-11T11:12:07.366Z,76.20
2024-01-11T11:14:36.625Z,74.00
2024-01-11T11:17:05.774Z,70.40
2024-01-11T11:19:34.085Z,66.40
2024-01-11T11:22:06.251Z,65.70
2024-01-11T11:24:37.576Z,64.30
2024-01-11T11:27:06.851Z,63.50
2024-01-11T11:29:35.090Z,62.80
2024-01-11T11:32:04.612Z,59.90
2024-01-11T11:34:46.587Z,67.30
2024-01-11T11:37:24.451Z,68.80
2024-01-11T11:39:53.114Z,57.70
2024-01-11T11:42:26.000Z,63.00
2024-01-11T11:44:54.296Z,61.50
2024-01-11T11:47:24.575Z,62.10
2024-01-11T11:50:04.665Z,54.10
2024-01-11T11:52:37.979Z,57.20
2024-01-11T11:55:10.000Z,56.90
2024-01-11T11:57:38.165Z,46.80
2024-01-11T12:00:07.861Z,55.30
2024-01-11T12:02:43.132Z,40.70
2024-01-11T12:05:11.598Z,43.50
2024-01-11T12:07:39.978Z,38.10
2024-01-11T12:10:08.240Z,40.90
2024-01-11T12:12:38.975Z,37.00
2024-01-11T12:15:07.871Z,33.70
2024-01-11T12:17:36.146Z,35.90
2024-01-11T12:20:05.052Z,38.90
2024-01-11T12:22:33.405Z,40.40
2024-01-11T12:25:02.619Z,31.40
2024-01-11T12:27:31.855Z,32.10
2024-01-11T12:30:00.236Z,29.70
2024-01-11T12:32:31.222Z,36.30
2024-01-11T12:34:59.663Z,34.60
2024-01-11T12:37:28.183Z,30.50
2024-01-11T12:39:59.885Z,36.10
2024-01-11T12:42:30.873Z,42.20
2024-01-11T12:44:59.774Z,35.40
2024-01-11T12:47:28.961Z,46.70
2024-01-11T12:49:57.658Z,36.70
2024-01-11T12:52:28.758Z,32.70
2024-01-11T12:54:58.158Z,38.60
2024-01-11T12:57:26.520Z,30.90
2024-01-11T12:59:54.942Z,34.60
2024-01-11T13:02:23.066Z,34.60
2024-01-11T13:04:52.112Z,30.80
2024-01-11T13:07:20.483Z,29.70
2024-01-11T13:09:48.702Z,29.90
2024-01-11T13:12:16.821Z,30.40
2024-01-11T13:14:45.077Z,30.10
2024-01-11T13:17:13.505Z,35.40
2024-01-11T13:19:41.759Z,29.50
2024-01-11T13:22:10.236Z,29.30
2024-01-11T13:24:38.307Z,30.40
2024-01-11T13:27:06.657Z,29.50
2024-01-11T13:29:35.178Z,28.80
2024-01-11T13:32:05.762Z,27.40
2024-01-11T13:34:34.061Z,27.00
2024-01-11T13:37:02.442Z,27.30
2024-01-11T13:39:30.611Z,29.70
2024-01-11T13:41:59.617Z,29.20
2024-01-11T13:44:28.067Z,27.30
2024-01-11T13:46:56.466Z,29.80
2024-01-11T13:49:26.580Z,31.00
2024-01-11T13:52:00.914Z,29.50
2024-01-11T13:54:30.335Z,30.30
2024-01-11T13:56:58.483Z,26.20
2024-01-11T13:59:27.402Z,32.90
2024-01-11T14:01:55.639Z,33.80
2024-01-11T14:04:25.180Z,35.00
2024-01-11T14:06:54.012Z,29.50
2024-01-11T14:09:23.633Z,31.70
2024-01-11T14:11:51.839Z,32.20
2024-01-11T14:14:22.032Z,32.00
2024-01-11T14:16:50.408Z,33.10
2024-01-11T14:19:18.770Z,30.40
2024-01-11T14:21:47.081Z,32.90
2024-01-11T14:24:18.207Z,28.10
2024-01-11T14:26:51.490Z,34.80
2024-01-11T14:29:19.591Z,30.90
2024-01-11T14:31:47.839Z,32.60
2024-01-11T14:34:16.025Z,30.10
2024-01-11T14:36:44.187Z,36.70
2024-01-11T14:39:12.373Z,32.50
2024-01-11T14:41:40.479Z,29.00
2024-01-11T14:44:09.063Z,32.10
2024-01-11T14:46:37.207Z,28.80
2024-01-11T14:49:05.911Z,30.10
2024-01-11T14:51:35.261Z,31.60
2024-01-11T14:54:05.096Z,43.20
2024-01-11T14:56:33.532Z,37.40
2024-01-11T14:59:03.329Z,29.60
2024-01-11T15:01:32.302Z,40.10
2024-01-11T15:04:00.682Z,39.10
2024-01-11T15:06:29.213Z,29.30
2024-01-11T15:08:57.848Z,27.10
2024-01-11T15:11:27.060Z,30.10
2024-01-11T15:13:55.271Z,44.90
2024-01-11T15:16:23.957Z,34.20
2024-01-11T15:18:52.260Z,35.10
2024-01-11T15:21:20.396Z,35.90
2024-01-11T15:23:48.597Z,48.00
2024-01-11T15:26:16.971Z,39.10
2024-01-11T15:28:45.143Z,40.40
2024-01-11T15:31:13.256Z,45.30
2024-01-11T15:33:41.707Z,46.60
2024-01-11T15:36:11.077Z,46.30
2024-01-11T15:38:39.418Z,49.90
2024-01-11T15:41:07.664Z,59.60
2024-01-11T15:43:37.059Z,42.90
2024-01-11T15:46:05.914Z,34.80
2024-01-11T15:48:34.251Z,41.90
2024-01-11T15:51:05.246Z,35.60
2024-01-11T15:53:33.652Z,39.50
2024-01-11T15:56:02.389Z,37.00
2024-01-11T15:58:30.463Z,41.00
2024-01-11T16:00:58.556Z,27.70
2024-01-11T16:03:26.711Z,37.00
2024-01-11T16:05:55.408Z,30.40
2024-01-11T16:08:23.695Z,35.20
2024-01-11T16:10:52.054Z,30.00
2024-01-11T16:13:20.225Z,28.80
2024-01-11T16:15:49.415Z,32.20
2024-01-11T16:18:19.167Z,32.20
2024-01-11T16:20:47.645Z,29.10
2024-01-11T16:23:16.009Z,30.40
2024-01-11T16:25:44.151Z,41.80
2024-01-11T16:28:12.219Z,32.70
2024-01-11T16:30:40.526Z,34.50
2024-01-11T16:33:10.311Z,37.50
2024-01-11T16:35:45.140Z,47.70
2024-01-11T16:38:20.620Z,49.60
2024-01-11T16:40:49.369Z,30.80
2024-01-11T16:43:17.740Z,40.80
2024-01-11T16:45:45.916Z,32.10
2024-01-11T16:48:18.618Z,31.50
2024-01-11T16:50:48.617Z,39.90
2024-01-11T16:53:17.111Z,40.40
2024-01-11T16:55:45.886Z,31.00
2024-01-11T16:58:14.264Z,30.60
2024-01-11T17:00:43.297Z,33.40
2024-01-11T17:03:11.734Z,30.90
2024-01-11T17:05:40.225Z,35.70
2024-01-11T17:08:08.615Z,35.70
2024-01-11T17:10:39.062Z,33.40
2024-01-11T17:15:36.378Z,29.60
2024-01-11T17:18:05.113Z,24.00
2024-01-11T17:20:33.249Z,28.00
2024-01-11T17:23:01.542Z,24.10
2024-01-11T17:25:29.791Z,24.80
2024-01-11T17:27:57.957Z,26.20
2024-01-11T17:30:26.271Z,25.80
2024-01-11T17:32:55.827Z,25.80
2024-01-11T17:35:24.975Z,24.50
2024-01-11T17:37:53.209Z,21.20
2024-01-11T17:40:21.297Z,28.50
2024-01-11T17:42:49.553Z,23.70
2024-01-11T17:45:17.823Z,31.30
2024-01-11T17:47:46.420Z,24.00
2024-01-11T17:50:15.143Z,29.00
2024-01-11T17:52:45.970Z,21.30
2024-01-11T17:55:15.327Z,21.80
2024-01-11T17:57:43.710Z,24.00
2024-01-11T18:00:13.971Z,20.20
2024-01-11T18:02:42.194Z,21.00
2024-01-11T18:05:10.885Z,18.60
2024-01-11T18:07:39.274Z,18.00
2024-01-11T18:10:08.147Z,23.40
2024-01-11T18:12:36.220Z,25.30
2024-01-11T18:15:04.953Z,21.70
2024-01-11T18:17:33.271Z,22.40
2024-01-11T18:20:01.654Z,21.20
2024-01-11T18:22:31.612Z,22.00
2024-01-11T18:25:01.083Z,39.00
2024-01-11T18:27:29.456Z,33.70
2024-01-11T18:29:58.442Z,28.30
2024-01-11T18:32:26.800Z,23.80
2024-01-11T18:34:57.128Z,20.90
2024-01-11T18:37:27.163Z,20.50
2024-01-11T18:39:55.228Z,24.10
2024-01-11T18:42:25.094Z,20.20
2024-01-11T18:44:54.904Z,25.00
2024-01-11T18:47:23.196Z,22.40
2024-01-11T18:49:51.399Z,24.70
2024-01-11T18:52:19.679Z,23.20
2024-01-11T18:54:54.197Z,26.00
2024-01-11T18:57:26.484Z,25.30
2024-01-11T18:59:56.458Z,24.00
2024-01-11T19:02:24.772Z,28.30
2024-01-11T19:04:52.965Z,29.90
2024-01-11T19:07:21.540Z,28.40
2024-01-11T19:09:49.703Z,29.70
2024-01-11T19:12:17.778Z,29.20
2024-01-11T19:14:46.850Z,31.40
2024-01-11T19:17:15.660Z,31.60
2024-01-11T19:19:43.926Z,33.40
2024-01-11T19:22:12.290Z,36.60
2024-01-11T19:24:40.563Z,35.50
2024-01-11T19:27:08.842Z,34.30
2024-01-11T19:29:36.933Z,30.80
2024-01-11T19:32:05.508Z,30.50
2024-01-11T19:34:33.703Z,31.60
2024-01-11T19:37:02.768Z,32.60
2024-01-11T19:39:30.927Z,35.70
2024-01-11T19:42:00.300Z,33.60
2024-01-11T19:44:28.873Z,34.20
2024-01-11T19:46:57.292Z,31.90
2024-01-11T19:49:25.587Z,34.00
2024-01-11T19:51:53.851Z,30.60
2024-01-11T19:54:22.120Z,29.70
2024-01-11T19:56:50.229Z,31.40
2024-01-11T19:59:19.438Z,27.80
2024-01-11T20:01:47.572Z,34.00
2024-01-11T20:04:15.842Z,30.40
2024-01-11T20:06:44.748Z,33.10
2024-01-11T20:09:16.694Z,33.60
2024-01-11T20:11:45.330Z,31.00
2024-01-11T20:14:13.875Z,34.20
2024-01-11T20:16:42.221Z,31.70
2024-01-11T20:19:10.459Z,27.90
2024-01-11T20:21:38.676Z,26.80
2024-01-11T20:24:07.249Z,30.70
2024-01-11T20:26:35.589Z,27.40
2024-01-11T20:29:03.797Z,32.80
2024-01-11T20:31:32.912Z,29.30
2024-01-11T20:34:04.096Z,31.40
2024-01-11T20:36:32.458Z,30.00
2024-01-11T20:39:00.834Z,28.80
2024-01-11T20:41:29.116Z,32.10
2024-01-11T20:43:57.437Z,28.40
2024-01-11T20:46:25.812Z,29.60
2024-01-11T20:48:54.108Z,32.50
2024-01-11T20:51:22.279Z,25.10
2024-01-11T20:53:51.661Z,25.70
2024-01-11T20:56:19.873Z,42.10
2024-01-11T20:58:48.222Z,34.80
2024-01-11T21:01:16.706Z,29.00
2024-01-11T21:03:45.140Z,27.20
2024-01-11T21:06:14.625Z,28.70
2024-01-11T21:08:43.228Z,25.00
2024-01-11T21:11:11.512Z,27.40
2024-01-11T21:13:39.758Z,23.50
2024-01-11T21:16:07.900Z,21.30
2024-01-11T21:18:36.340Z,26.50
2024-01-11T21:21:04.859Z,25.80
2024-01-11T21:23:33.356Z,26.20
2024-01-11T21:26:01.596Z,26.60
2024-01-11T21:28:30.085Z,22.60
2024-01-11T21:30:58.412Z,26.20
2024-01-11T21:33:26.725Z,23.10
2024-01-11T21:35:54.978Z,24.30
2024-01-11T21:38:23.195Z,27.10
2024-01-11T21:40:53.022Z,24.70
2024-01-11T21:43:21.174Z,24.30
2024-01-11T21:45:49.225Z,24.40
2024-01-11T21:48:17.637Z,24.00
2024-01-11T21:50:46.011Z,25.20
2024-01-11T21:53:14.679Z,26.60
2024-01-11T21:55:42.949Z,21.00
2024-01-11T21:58:11.114Z,23.30
2024-01-11T22:00:39.322Z,20.90
2024-01-11T22:03:08.411Z,24.30
2024-01-11T22:05:36.870Z,22.10
2024-01-11T22:08:05.485Z,21.50
2024-01-11T22:10:33.523Z,18.50
2024-01-11T22:13:01.688Z,20.20
2024-01-11T22:15:30.166Z,22.60
2024-01-11T22:17:58.619Z,19.70
2024-01-11T22:20:27.195Z,21.90
2024-01-11T22:22:55.912Z,20.80
2024-01-11T22:25:24.397Z,18.20
2024-01-11T22:27:53.195Z,18.20
2024-01-11T22:30:21.693Z,22.40
2024-01-11T22:32:50.135Z,22.10
2024-01-11T22:35:19.600Z,20.20
2024-01-11T22:37:47.921Z,22.50
2024-01-11T22:40:16.096Z,20.90
2024-01-11T22:42:44.281Z,20.40
2024-01-11T22:45:12.438Z,20.60
2024-01-11T22:47:41.178Z,22.10
2024-01-11T22:50:10.103Z,22.80
2024-01-11T22:52:40.052Z,21.80
2024-01-11T22:55:08.302Z,25.90
2024-01-11T22:57:36.465Z,22.00
2024-01-11T23:00:22.035Z,24.30
2024-01-11T23:02:51.820Z,23.40
2024-01-11T23:05:20.926Z,21.60
2024-01-11T23:07:49.434Z,20.90
2024-01-11T23:10:18.364Z,20.10
2024-01-11T23:12:46.608Z,21.20
2024-01-11T23:15:14.776Z,20.40
2024-01-11T23:17:43.253Z,20.00
2024-01-11T23:20:12.296Z,22.10
2024-01-11T23:22:40.420Z,19.50
2024-01-11T23:25:09.229Z,20.30
2024-01-11T23:27:37.708Z,19.60
2024-01-11T23:30:06.594Z,20.80
2024-01-11T23:32:34.825Z,17.80
2024-01-11T23:35:03.238Z,21.30
2024-01-11T23:37:31.504Z,19.80
2024-01-11T23:39:59.694Z,20.00
2024-01-11T23:42:27.856Z,20.50
2024-01-11T23:44:56.234Z,20.80
2024-01-11T23:47:24.417Z,18.80
2024-01-11T23:49:52.723Z,21.60
2024-01-11T23:52:20.950Z,19.00
2024-01-11T23:54:49.024Z,22.00
2024-01-11T23:57:17.184Z,21.10
2024-01-11T23:59:46.099Z,23.10
